Other Surface Observations
Issued by NWS Great Falls, MT

Home | Current Version | Previous Version | Text Only | Print | Product List | Glossary On
Versions: 1 2 3 4 5 6 7 8 9 10 11 12 13 14 15 16 17 18 19 20 21 22 23 24 25 26 27 28 29 30 31 32 33 34 35 36 37 38 39 40 41 42 43 44 45 46 47 48 49 50
991
SXUS55 KTFX 141944
OSOTFX
AREA AWOS OBSERVATIONS
NATIONAL WEATHER SERVICE GREAT FALLS MT
1244 PM MST SUN FEB 14 2016

METAR KPWD 141945Z AUTO 00000KT 9SM 03/M03 A2968 RMK PLENTYWOOD
METAR KPO1 141945Z AUTO 22004KT 10SM 04/M01 A2971 RMK POPLAR
METAR K1S3 141945Z AUTO 29018G26KT 10SM 08/M02 A2977 RMK FORSYTH
METAR KS71 141945Z AUTO 28021G32KT 10SM 11/M07 A2975 RMK CHINOOK
METAR K38S 141945Z AUTO 30015G20KT 10SM 07/M04 A2999 RMK DEER LODGE
METAR K3U3 141945Z AUTO 25018G27KT 10SM 07/M04 A2998 RMK ANACONDA
METAR K6S5 141945Z AUTO 18004KT 10SM 08/M01 A3006 RMK HAMILTON



USA.gov is the U.S. government's official web portal to all federal, state and local government web resources and services.